createdAt,value
2017-10-22T00:00:40.523Z,12.67
2017-10-22T00:01:40.584Z,12.54
2017-10-22T00:03:33.592Z,12.50
2017-10-22T00:04:33.629Z,12.54
2017-10-22T00:06:26.610Z,12.50
2017-10-22T00:07:26.672Z,12.55
2017-10-22T00:09:19.677Z,12.54
2017-10-22T00:10:19.718Z,12.54
2017-10-22T00:12:12.720Z,12.49
2017-10-22T00:13:12.759Z,12.49
2017-10-22T00:15:05.747Z,12.45
2017-10-22T00:16:05.805Z,12.45
2017-10-22T00:17:58.813Z,12.42
2017-10-22T00:18:58.848Z,12.36
2017-10-22T00:20:51.841Z,12.42
2017-10-22T00:21:51.899Z,12.42
2017-10-22T00:23:44.905Z,12.40
2017-10-22T00:24:44.943Z,12.36
2017-10-22T00:26:37.931Z,12.36
2017-10-22T00:27:37.992Z,12.43
2017-10-22T00:29:30.997Z,12.39
2017-10-22T00:30:31.036Z,12.35
2017-10-22T00:32:24.552Z,12.39
2017-10-22T00:33:24.586Z,12.42
2017-10-22T00:35:17.574Z,12.32
2017-10-22T00:36:17.629Z,12.25
2017-10-22T00:38:10.713Z,12.18
2017-10-22T00:39:10.673Z,12.22
2017-10-22T00:41:03.656Z,12.18
2017-10-22T00:42:03.717Z,12.20
2017-10-22T00:43:56.731Z,12.18
2017-10-22T00:44:56.771Z,12.15
2017-10-22T00:46:49.762Z,12.24
2017-10-22T00:47:49.822Z,12.13
2017-10-22T00:49:42.825Z,12.20
2017-10-22T00:50:42.865Z,12.12
2017-10-22T00:52:35.871Z,12.15
2017-10-22T00:53:35.909Z,12.10
2017-10-22T00:55:28.891Z,12.10
2017-10-22T00:56:28.953Z,12.07
2017-10-22T00:58:21.958Z,12.17
2017-10-22T00:59:21.996Z,12.12
2017-10-22T01:01:14.979Z,12.15
2017-10-22T01:02:15.039Z,12.06
2017-10-22T01:04:08.044Z,12.13
2017-10-22T01:05:08.081Z,12.15
2017-10-22T01:07:01.064Z,12.18
2017-10-22T01:08:01.124Z,12.13
2017-10-22T01:09:54.136Z,12.02
2017-10-22T01:10:54.176Z,12.02
2017-10-22T01:12:47.178Z,12.20
2017-10-22T01:13:47.218Z,12.15
2017-10-22T01:15:40.206Z,12.10
2017-10-22T01:16:40.261Z,12.07
2017-10-22T01:18:33.269Z,12.22
2017-10-22T01:19:33.308Z,12.20
2017-10-22T01:21:26.290Z,12.12
2017-10-22T01:22:26.363Z,12.10
2017-10-22T01:24:19.355Z,12.10
2017-10-22T01:25:19.393Z,12.03
2017-10-22T01:27:12.377Z,12.03
2017-10-22T01:28:12.436Z,12.02
2017-10-22T01:30:05.441Z,12.07
2017-10-22T01:31:05.482Z,11.87
2017-10-22T01:32:58.998Z,12.02
2017-10-22T01:33:59.030Z,12.07
2017-10-22T01:35:52.018Z,11.95
2017-10-22T01:36:52.077Z,11.94
2017-10-22T01:38:45.079Z,11.88
2017-10-22T01:39:45.117Z,11.87
2017-10-22T01:41:38.105Z,11.91
2017-10-22T01:42:38.163Z,11.87
2017-10-22T01:44:31.164Z,11.87
2017-10-22T01:45:31.202Z,11.88
2017-10-22T01:47:24.191Z,11.94
2017-10-22T01:48:24.248Z,11.91
2017-10-22T01:50:17.250Z,11.90
2017-10-22T01:51:17.292Z,11.80
2017-10-22T01:53:10.336Z,11.80
2017-10-22T01:54:10.336Z,11.80
2017-10-22T01:56:03.319Z,11.94
2017-10-22T01:57:03.688Z,11.88
2017-10-22T01:58:56.387Z,11.94
2017-10-22T01:59:56.423Z,11.94
2017-10-22T02:01:49.411Z,11.97
2017-10-22T02:02:49.469Z,11.86
2017-10-22T02:04:42.472Z,11.97
2017-10-22T02:05:42.512Z,11.80
2017-10-22T02:07:35.495Z,11.86
2017-10-22T02:08:35.555Z,11.84
2017-10-22T02:10:28.558Z,11.84
2017-10-22T02:11:28.597Z,11.88
2017-10-22T02:13:21.604Z,11.94
2017-10-22T02:14:21.652Z,11.88
2017-10-22T02:16:14.628Z,12.02
2017-10-22T02:17:14.686Z,11.95
2017-10-22T02:19:07.695Z,12.04
2017-10-22T02:20:07.731Z,11.97
2017-10-22T02:22:00.715Z,11.84
2017-10-22T02:23:00.776Z,11.84
2017-10-22T02:24:53.781Z,11.94
2017-10-22T02:25:53.817Z,11.84
2017-10-22T02:27:46.801Z,11.90
2017-10-22T02:28:46.861Z,11.91
2017-10-22T02:30:39.863Z,11.99
2017-10-22T02:31:39.904Z,11.97
2017-10-22T02:33:33.422Z,12.06
2017-10-22T02:34:33.454Z,12.07
2017-10-22T02:36:26.440Z,12.09
2017-10-22T02:37:26.499Z,12.18
2017-10-22T02:39:19.507Z,12.10
2017-10-22T02:40:19.546Z,12.17
2017-10-22T02:42:12.534Z,12.32
2017-10-22T02:43:12.598Z,12.29
2017-10-22T02:45:05.633Z,12.29
2017-10-22T02:46:05.634Z,12.25
2017-10-22T02:47:58.620Z,12.28
2017-10-22T02:48:58.675Z,12.28
2017-10-22T02:50:51.678Z,12.32
2017-10-22T02:51:51.717Z,12.39
2017-10-22T02:53:44.723Z,12.36
2017-10-22T02:54:44.761Z,12.43
2017-10-22T02:56:37.745Z,12.40
2017-10-22T02:57:37.805Z,12.43
2017-10-22T02:59:30.807Z,12.40
2017-10-22T03:00:30.848Z,12.50
2017-10-22T03:02:23.829Z,12.54
2017-10-22T03:03:23.889Z,12.50
2017-10-22T03:05:16.895Z,12.55
2017-10-22T03:06:16.935Z,12.50
2017-10-22T03:08:09.915Z,12.55
2017-10-22T03:09:09.976Z,12.50
2017-10-22T03:11:02.980Z,12.61
2017-10-22T03:12:03.020Z,12.64
2017-10-22T03:13:56.022Z,12.65
2017-10-22T03:14:56.061Z,12.67
2017-10-22T03:16:49.049Z,12.67
2017-10-22T03:17:49.108Z,12.65
2017-10-22T03:19:42.112Z,12.67
2017-10-22T03:20:42.152Z,12.70
2017-10-22T03:22:35.136Z,12.73
2017-10-22T03:23:35.198Z,12.75
2017-10-22T03:25:28.203Z,12.67
2017-10-22T03:26:28.242Z,12.75
2017-10-22T03:28:21.224Z,12.68
2017-10-22T03:29:21.285Z,12.70
2017-10-22T03:31:14.291Z,12.78
2017-10-22T03:32:14.329Z,12.72
2017-10-22T03:34:07.343Z,12.72
2017-10-22T03:35:07.372Z,12.72
2017-10-22T03:37:00.353Z,12.73
2017-10-22T03:38:00.415Z,12.73
2017-10-22T03:39:53.425Z,12.67
2017-10-22T03:40:53.462Z,12.72
2017-10-22T03:42:46.442Z,12.70
2017-10-22T03:43:46.504Z,12.64
2017-10-22T03:45:39.508Z,12.64
2017-10-22T03:46:39.547Z,12.62
2017-10-22T03:48:32.529Z,12.53
2017-10-22T03:49:32.589Z,12.53
2017-10-22T03:51:25.594Z,12.45
2017-10-22T03:52:25.632Z,12.47
2017-10-22T03:54:18.635Z,12.47
2017-10-22T03:55:18.675Z,12.55
2017-10-22T03:57:11.663Z,12.47
2017-10-22T03:58:11.723Z,12.46
2017-10-22T04:00:04.723Z,12.50
2017-10-22T04:01:04.763Z,12.50
2017-10-22T04:02:57.750Z,12.54
2017-10-22T04:03:57.808Z,12.54
2017-10-22T04:05:50.813Z,12.49
2017-10-22T04:06:50.853Z,12.46
2017-10-22T04:08:43.837Z,12.45
2017-10-22T04:09:43.896Z,12.45
2017-10-22T04:11:36.904Z,12.43
2017-10-22T04:12:36.944Z,12.43
2017-10-22T04:14:29.948Z,12.27
2017-10-22T04:15:29.988Z,12.25
2017-10-22T04:17:22.974Z,12.22
2017-10-22T04:18:23.031Z,12.17
2017-10-22T04:20:16.037Z,12.13
2017-10-22T04:21:16.073Z,12.10
2017-10-22T04:23:09.061Z,12.21
2017-10-22T04:24:09.117Z,12.21
2017-10-22T04:26:02.122Z,12.13
2017-10-22T04:27:02.160Z,12.09
2017-10-22T04:28:55.149Z,12.20
2017-10-22T04:29:55.204Z,12.20
2017-10-22T04:31:48.209Z,12.18
2017-10-22T04:32:48.248Z,12.12
2017-10-22T04:34:41.253Z,12.15
2017-10-22T04:35:41.292Z,12.22
2017-10-22T04:37:34.279Z,12.24
2017-10-22T04:38:34.336Z,12.25
2017-10-22T04:40:27.338Z,12.29
2017-10-22T04:41:27.379Z,12.22
2017-10-22T04:43:20.360Z,12.17
2017-10-22T04:44:20.421Z,12.21
2017-10-22T04:46:13.432Z,12.13
2017-10-22T04:47:13.471Z,12.13
2017-10-22T04:49:06.458Z,12.09
2017-10-22T04:50:06.514Z,12.10
2017-10-22T04:51:59.516Z,12.06
2017-10-22T04:52:59.556Z,12.02
2017-10-22T04:54:52.563Z,12.03
2017-10-22T04:55:52.601Z,11.94
2017-10-22T04:57:45.584Z,11.94
2017-10-22T04:58:45.645Z,11.88
2017-10-22T05:00:38.647Z,11.80
2017-10-22T05:01:38.686Z,11.73
2017-10-22T05:03:31.669Z,11.70
2017-10-22T05:04:31.728Z,11.66
2017-10-22T05:06:24.732Z,11.55
2017-10-22T05:07:24.772Z,11.52
2017-10-22T05:09:17.756Z,11.51
2017-10-22T05:10:17.816Z,11.44
2017-10-22T05:12:10.832Z,11.35
2017-10-22T05:13:10.869Z,11.30
2017-10-22T05:15:03.879Z,11.23
2017-10-22T05:16:03.920Z,11.10
2017-10-22T05:17:56.901Z,11.23
2017-10-22T05:18:56.960Z,11.18
2017-10-22T05:20:49.965Z,11.11
2017-10-22T05:21:50.012Z,11.00
2017-10-22T05:23:42.992Z,10.97
2017-10-22T05:24:43.047Z,10.96
2017-10-22T05:26:36.049Z,10.87
2017-10-22T05:27:36.088Z,10.90
2017-10-22T05:29:29.581Z,10.86
2017-10-22T05:30:29.638Z,10.76
2017-10-22T05:32:22.645Z,10.71
2017-10-22T05:33:22.682Z,10.75
2017-10-22T05:35:15.689Z,10.69
2017-10-22T05:36:15.727Z,10.67
2017-10-22T05:38:08.713Z,10.68
2017-10-22T05:39:08.777Z,10.67
2017-10-22T05:41:01.781Z,10.59
2017-10-22T05:42:01.830Z,10.60
2017-10-22T05:43:54.802Z,10.49
2017-10-22T05:44:54.862Z,10.59
2017-10-22T05:46:47.869Z,10.60
2017-10-22T05:47:47.907Z,10.59
2017-10-22T05:49:40.892Z,10.46
2017-10-22T05:50:40.946Z,10.48
2017-10-22T05:52:33.950Z,10.46
2017-10-22T05:53:33.988Z,10.49
2017-10-22T05:55:26.993Z,10.37
2017-10-22T05:56:27.031Z,10.46
2017-10-22T05:58:20.017Z,10.46
2017-10-22T05:59:20.073Z,10.38
2017-10-22T06:01:13.078Z,10.35
2017-10-22T06:02:13.116Z,10.34
2017-10-22T06:04:06.098Z,10.44
2017-10-22T06:05:06.158Z,10.26
2017-10-22T06:06:59.161Z,10.26
2017-10-22T06:07:59.198Z,10.34
2017-10-22T06:09:52.184Z,10.13
2017-10-22T06:10:52.242Z,10.28
2017-10-22T06:12:45.251Z,10.15
2017-10-22T06:13:45.289Z,10.20
2017-10-22T06:15:38.293Z,10.16
2017-10-22T06:16:38.339Z,10.12
2017-10-22T06:18:31.318Z,10.30
2017-10-22T06:19:31.372Z,10.23
2017-10-22T06:21:24.377Z,10.26
2017-10-22T06:22:24.418Z,10.13
2017-10-22T06:24:17.395Z,10.30
2017-10-22T06:25:17.454Z,10.23
2017-10-22T06:27:10.456Z,10.26
2017-10-22T06:28:10.493Z,10.25
2017-10-22T06:30:03.475Z,10.26
2017-10-22T06:31:03.538Z,10.37
2017-10-22T06:32:57.050Z,10.25
2017-10-22T06:33:57.082Z,10.25
2017-10-22T06:35:50.089Z,10.25
2017-10-22T06:36:50.123Z,10.35
2017-10-22T06:38:43.110Z,10.37
2017-10-22T06:39:43.165Z,10.35
2017-10-22T06:41:36.170Z,10.42
2017-10-22T06:42:36.208Z,10.35
2017-10-22T06:44:29.189Z,10.46
2017-10-22T06:45:29.249Z,10.35
2017-10-22T06:47:22.250Z,10.37
2017-10-22T06:48:22.290Z,10.51
2017-10-22T06:50:15.283Z,10.54
2017-10-22T06:51:15.337Z,10.49
2017-10-22T06:53:08.341Z,10.59
2017-10-22T06:54:08.379Z,10.60
2017-10-22T06:56:01.382Z,10.60
2017-10-22T06:57:01.420Z,10.63
2017-10-22T06:58:54.404Z,10.72
2017-10-22T06:59:54.466Z,10.64
2017-10-22T07:01:47.467Z,10.67
2017-10-22T07:02:47.506Z,10.64
2017-10-22T07:04:40.491Z,10.63
2017-10-22T07:05:40.545Z,10.68
2017-10-22T07:07:33.548Z,10.74
2017-10-22T07:08:33.587Z,10.69
2017-10-22T07:10:26.571Z,10.69
2017-10-22T07:11:26.629Z,10.79
2017-10-22T07:13:19.636Z,10.89
2017-10-22T07:14:19.672Z,10.84
2017-10-22T07:16:12.678Z,10.89
2017-10-22T07:17:12.723Z,10.79
2017-10-22T07:19:05.704Z,10.82
2017-10-22T07:20:05.761Z,10.92
2017-10-22T07:21:58.768Z,10.96
2017-10-22T07:22:58.799Z,10.90
2017-10-22T07:24:51.784Z,10.84
2017-10-22T07:25:51.842Z,10.96
2017-10-22T07:27:44.846Z,10.89
2017-10-22T07:28:44.887Z,10.97
2017-10-22T07:30:37.871Z,10.99
2017-10-22T07:31:37.930Z,11.00
2017-10-22T07:33:31.441Z,10.89
2017-10-22T07:34:31.478Z,10.96
2017-10-22T07:36:24.484Z,10.99
2017-10-22T07:37:24.524Z,11.02
2017-10-22T07:39:17.505Z,11.00
2017-10-22T07:40:17.562Z,10.99
2017-10-22T07:42:10.607Z,10.97
2017-10-22T07:43:10.609Z,11.08
2017-10-22T07:45:03.590Z,11.04
2017-10-22T07:46:03.652Z,11.05
2017-10-22T07:47:56.654Z,11.05
2017-10-22T07:48:56.692Z,11.12
2017-10-22T07:50:49.677Z,11.08
2017-10-22T07:51:49.742Z,11.18
2017-10-22T07:53:42.762Z,11.17
2017-10-22T07:54:42.808Z,11.05
2017-10-22T07:56:35.819Z,11.15
2017-10-22T07:57:35.859Z,11.18
2017-10-22T07:59:28.840Z,11.15
2017-10-22T08:00:28.907Z,11.23
2017-10-22T08:02:21.910Z,11.19
2017-10-22T08:03:21.945Z,11.14
2017-10-22T08:05:14.931Z,11.15
2017-10-22T08:06:14.993Z,11.19
2017-10-22T08:08:08.004Z,11.23
2017-10-22T08:09:08.039Z,11.19
2017-10-22T08:11:01.034Z,11.17
2017-10-22T08:12:01.101Z,11.15
2017-10-22T08:13:54.108Z,11.12
2017-10-22T08:14:54.141Z,11.29
2017-10-22T08:16:47.159Z,11.19
2017-10-22T08:17:47.194Z,11.27
2017-10-22T08:19:40.201Z,11.26
2017-10-22T08:20:40.244Z,11.29
2017-10-22T08:22:33.247Z,11.19
2017-10-22T08:23:33.285Z,11.29
2017-10-22T08:25:26.278Z,11.29
2017-10-22T08:26:26.341Z,11.22
2017-10-22T08:28:19.348Z,11.33
2017-10-22T08:29:19.385Z,11.35
2017-10-22T08:31:12.365Z,11.41
2017-10-22T08:32:12.427Z,11.37
2017-10-22T08:34:05.433Z,11.44
2017-10-22T08:35:05.503Z,11.36
2017-10-22T08:36:58.488Z,11.48
2017-10-22T08:37:58.515Z,11.50
2017-10-22T08:39:51.503Z,11.50
2017-10-22T08:40:51.559Z,11.50
2017-10-22T08:42:44.573Z,11.51
2017-10-22T08:43:44.605Z,11.57
2017-10-22T08:45:37.593Z,11.51
2017-10-22T08:46:37.649Z,11.55
2017-10-22T08:48:30.670Z,11.54
2017-10-22T08:49:30.709Z,11.55
2017-10-22T08:51:23.692Z,11.66
2017-10-22T08:52:23.751Z,11.62
2017-10-22T08:54:16.766Z,11.73
2017-10-22T08:55:16.803Z,11.66
2017-10-22T08:57:09.806Z,11.77
2017-10-22T08:58:09.845Z,11.69
2017-10-22T09:00:02.832Z,11.80
2017-10-22T09:01:02.891Z,11.91
2017-10-22T09:02:55.896Z,11.88
2017-10-22T09:03:55.936Z,11.99
2017-10-22T09:05:48.924Z,11.88
2017-10-22T09:06:48.980Z,11.90
2017-10-22T09:08:41.985Z,11.88
2017-10-22T09:09:42.026Z,11.88
2017-10-22T09:11:35.012Z,11.88
2017-10-22T09:12:35.070Z,12.06
2017-10-22T09:14:28.074Z,11.94
2017-10-22T09:15:28.113Z,11.97
2017-10-22T09:17:21.118Z,12.07
2017-10-22T09:18:21.155Z,12.06
2017-10-22T09:20:14.144Z,12.18
2017-10-22T09:21:14.202Z,12.22
2017-10-22T09:23:07.209Z,12.12
2017-10-22T09:24:07.252Z,12.06
2017-10-22T09:26:00.240Z,12.15
2017-10-22T09:27:00.298Z,12.18
2017-10-22T09:28:53.303Z,12.10
2017-10-22T09:29:53.367Z,12.22
2017-10-22T09:31:46.326Z,12.06
2017-10-22T09:32:46.387Z,12.13
2017-10-22T09:34:39.394Z,12.09
2017-10-22T09:35:39.430Z,12.17
2017-10-22T09:37:32.436Z,12.10
2017-10-22T09:38:32.475Z,12.09
2017-10-22T09:40:25.463Z,12.02
2017-10-22T09:41:25.519Z,12.02
2017-10-22T09:43:18.525Z,12.02
2017-10-22T09:44:18.565Z,12.04
2017-10-22T09:46:11.550Z,12.06
2017-10-22T09:47:11.615Z,12.04
2017-10-22T09:49:04.618Z,11.90
2017-10-22T09:50:04.655Z,11.94
2017-10-22T09:51:57.667Z,11.88
2017-10-22T09:52:57.705Z,11.91
2017-10-22T09:54:50.715Z,11.78
2017-10-22T09:55:50.757Z,11.83
2017-10-22T09:57:43.777Z,11.73
2017-10-22T09:58:43.815Z,11.86
2017-10-22T10:00:36.800Z,11.81
2017-10-22T10:01:36.861Z,11.84
2017-10-22T10:03:29.865Z,11.84
2017-10-22T10:04:29.903Z,11.80
2017-10-22T10:06:22.889Z,11.73
2017-10-22T10:07:22.948Z,11.69
2017-10-22T10:09:15.957Z,11.77
2017-10-22T10:10:15.993Z,11.72
2017-10-22T10:12:08.999Z,11.78
2017-10-22T10:13:09.048Z,11.75
2017-10-22T10:15:02.042Z,11.72
2017-10-22T10:16:02.082Z,11.72
2017-10-22T10:17:55.085Z,11.66
2017-10-22T10:18:55.123Z,11.68
2017-10-22T10:20:48.111Z,11.63
2017-10-22T10:21:48.181Z,11.65
2017-10-22T10:23:41.183Z,11.55
2017-10-22T10:24:41.379Z,11.52
2017-10-22T10:26:34.200Z,11.59
2017-10-22T10:27:34.255Z,11.52
2017-10-22T10:29:27.260Z,11.47
2017-10-22T10:30:27.299Z,11.52
2017-10-22T10:32:20.367Z,11.50
2017-10-22T10:33:20.344Z,11.51
2017-10-22T10:35:13.329Z,11.57
2017-10-22T10:36:13.387Z,11.59
2017-10-22T10:38:06.399Z,11.65
2017-10-22T10:39:06.433Z,11.55
2017-10-22T10:40:59.420Z,11.54
2017-10-22T10:41:59.479Z,11.55
2017-10-22T10:43:52.484Z,11.69
2017-10-22T10:44:52.571Z,11.54
2017-10-22T10:46:45.506Z,11.68
2017-10-22T10:47:45.571Z,11.68
2017-10-22T10:49:38.571Z,11.90
2017-10-22T10:50:38.611Z,11.73
2017-10-22T10:52:31.614Z,11.77
2017-10-22T10:53:31.656Z,11.73
2017-10-22T10:55:24.638Z,11.75
2017-10-22T10:56:24.699Z,11.75
2017-10-22T10:58:17.705Z,11.73
2017-10-22T10:59:17.743Z,11.77
2017-10-22T11:01:10.727Z,11.69
2017-10-22T11:02:10.817Z,11.70
2017-10-22T11:04:03.809Z,11.66
2017-10-22T11:05:03.829Z,11.62
2017-10-22T11:06:56.820Z,11.68
2017-10-22T11:07:56.877Z,11.66
2017-10-22T11:09:49.879Z,11.72
2017-10-22T11:10:49.919Z,11.69
2017-10-22T11:12:42.924Z,11.78
2017-10-22T11:13:42.961Z,11.72
2017-10-22T11:15:35.945Z,11.73
2017-10-22T11:16:36.009Z,11.78
2017-10-22T11:18:29.009Z,11.88
2017-10-22T11:19:29.048Z,11.84
2017-10-22T11:21:22.041Z,11.91
2017-10-22T11:22:22.101Z,11.94
2017-10-22T11:24:15.108Z,11.90
2017-10-22T11:25:15.153Z,11.95
2017-10-22T11:27:08.136Z,11.94
2017-10-22T11:28:08.190Z,11.87
2017-10-22T11:30:01.202Z,11.91
2017-10-22T11:31:01.242Z,11.87
2017-10-22T11:32:54.243Z,11.80
2017-10-22T11:33:54.283Z,11.81
2017-10-22T11:35:47.272Z,11.75
2017-10-22T11:36:47.326Z,11.73
2017-10-22T11:38:40.340Z,11.73
2017-10-22T11:39:40.372Z,11.72
2017-10-22T11:41:33.359Z,11.73
2017-10-22T11:42:33.415Z,11.72
2017-10-22T11:44:26.929Z,11.80
2017-10-22T11:45:26.965Z,11.83
2017-10-22T11:47:19.958Z,11.73
2017-10-22T11:48:20.015Z,11.80
2017-10-22T11:50:13.058Z,11.75
2017-10-22T11:51:13.061Z,11.87
2017-10-22T11:53:06.073Z,11.86
2017-10-22T11:54:06.129Z,11.91
2017-10-22T11:55:59.104Z,12.07
2017-10-22T11:56:59.158Z,12.13
2017-10-22T11:58:53.679Z,12.09
2017-10-22T11:59:53.730Z,12.10
2017-10-22T12:01:46.695Z,12.10
2017-10-22T12:02:46.759Z,12.06
2017-10-22T12:04:39.778Z,12.17
2017-10-22T12:05:39.802Z,12.10
2017-10-22T12:07:32.794Z,12.22
2017-10-22T12:08:32.852Z,12.37
2017-10-22T12:10:25.879Z,12.39
2017-10-22T12:11:25.912Z,12.39
2017-10-22T12:13:18.924Z,12.67
2017-10-22T12:14:18.943Z,12.79
2017-10-22T12:16:11.924Z,12.87
2017-10-22T12:17:11.984Z,12.98
2017-10-22T12:19:04.999Z,13.03
2017-10-22T12:20:05.027Z,13.05
2017-10-22T12:21:58.015Z,13.03
2017-10-22T12:22:58.093Z,12.95
2017-10-22T12:24:51.118Z,13.05
2017-10-22T12:25:51.117Z,13.00
2017-10-22T12:27:44.631Z,13.13
2017-10-22T12:28:44.166Z,13.08
2017-10-22T12:30:37.182Z,13.19
2017-10-22T12:31:38.178Z,13.30
2017-10-22T12:33:30.248Z,13.22
2017-10-22T12:34:30.266Z,13.19
2017-10-22T12:36:23.300Z,13.23
2017-10-22T12:37:23.355Z,13.28
2017-10-22T12:39:16.316Z,13.13
2017-10-22T12:40:16.355Z,13.05
2017-10-22T12:42:09.343Z,12.97
2017-10-22T12:43:09.407Z,12.98
2017-10-22T12:45:02.411Z,13.09
2017-10-22T12:46:02.451Z,13.09
2017-10-22T12:47:55.438Z,13.13
2017-10-22T12:48:55.495Z,13.09
2017-10-22T12:50:48.504Z,13.19
2017-10-22T12:51:48.541Z,13.44
2017-10-22T12:53:41.550Z,13.49
2017-10-22T12:54:41.588Z,13.37
2017-10-22T12:56:34.577Z,13.50
2017-10-22T12:57:34.637Z,13.53
2017-10-22T12:59:27.647Z,13.53
2017-10-22T13:00:27.686Z,13.56
2017-10-22T13:02:20.672Z,13.53
2017-10-22T13:03:20.729Z,13.50
2017-10-22T13:05:13.735Z,13.46
2017-10-22T13:06:13.775Z,13.53
2017-10-22T13:08:06.767Z,13.42
2017-10-22T13:09:06.825Z,13.49
2017-10-22T13:10:59.832Z,13.42
2017-10-22T13:11:59.881Z,13.46
2017-10-22T13:13:52.880Z,13.38
2017-10-22T13:14:52.970Z,13.25
2017-10-22T13:16:45.911Z,13.30
2017-10-22T13:17:45.967Z,13.18
2017-10-22T13:19:38.973Z,13.20
2017-10-22T13:20:39.013Z,13.11
2017-10-22T13:22:32.002Z,13.13
2017-10-22T13:23:32.059Z,13.13
2017-10-22T13:25:25.064Z,13.12
2017-10-22T13:26:25.120Z,13.09
2017-10-22T13:28:18.095Z,13.23
2017-10-22T13:29:18.163Z,13.09
2017-10-22T13:31:11.199Z,13.15
2017-10-22T13:32:11.212Z,13.16
2017-10-22T13:34:04.209Z,13.13
2017-10-22T13:35:04.248Z,13.20
2017-10-22T13:36:57.239Z,13.27
2017-10-22T13:37:57.297Z,13.20
2017-10-22T13:39:50.304Z,13.27
2017-10-22T13:40:50.344Z,13.28
2017-10-22T13:42:43.332Z,13.30
2017-10-22T13:43:43.391Z,13.30
2017-10-22T13:45:36.409Z,13.33
2017-10-22T13:46:36.437Z,13.53
2017-10-22T13:48:29.427Z,13.42
2017-10-22T13:49:29.492Z,13.42
2017-10-22T13:51:22.539Z,13.31
2017-10-22T13:52:22.533Z,13.27
2017-10-22T13:54:15.540Z,13.25
2017-10-22T13:55:15.579Z,13.30
2017-10-22T13:57:08.571Z,13.27
2017-10-22T13:58:08.635Z,13.27
2017-10-22T14:00:02.155Z,13.28
2017-10-22T14:01:02.190Z,13.39
2017-10-22T14:02:55.188Z,13.39
2017-10-22T14:03:55.242Z,13.28
2017-10-22T14:05:48.251Z,13.25
2017-10-22T14:06:48.290Z,13.23
2017-10-22T14:08:41.278Z,13.23
2017-10-22T14:09:41.337Z,13.33
2017-10-22T14:11:34.349Z,13.31
2017-10-22T14:12:34.390Z,13.25
2017-10-22T14:14:27.404Z,13.18
2017-10-22T14:15:27.436Z,13.18
2017-10-22T14:17:20.425Z,13.23
2017-10-22T14:18:20.482Z,13.15
2017-10-22T14:20:13.491Z,13.05
2017-10-22T14:21:13.529Z,13.05
2017-10-22T14:23:06.516Z,13.09
2017-10-22T14:24:06.575Z,13.08
2017-10-22T14:25:59.582Z,13.00
2017-10-22T14:26:59.626Z,13.01
2017-10-22T14:28:52.620Z,13.04
2017-10-22T14:29:52.683Z,12.98
2017-10-22T14:31:45.690Z,12.94
2017-10-22T14:32:45.729Z,12.91
2017-10-22T14:34:38.737Z,12.95
2017-10-22T14:35:38.780Z,12.95
2017-10-22T14:37:31.765Z,12.91
2017-10-22T14:38:31.825Z,12.86
2017-10-22T14:40:24.835Z,12.91
2017-10-22T14:41:24.871Z,12.91
2017-10-22T14:43:17.858Z,12.83
2017-10-22T14:44:17.915Z,12.72
2017-10-22T14:46:10.974Z,12.75
2017-10-22T14:47:10.961Z,12.65
2017-10-22T14:49:03.950Z,12.64
2017-10-22T14:50:04.008Z,12.70
2017-10-22T14:51:57.013Z,12.64
2017-10-22T14:52:57.053Z,12.65
2017-10-22T14:54:50.060Z,12.64
2017-10-22T14:55:50.101Z,12.64
2017-10-22T14:57:43.089Z,12.65
2017-10-22T14:58:43.146Z,12.65
2017-10-22T15:00:36.158Z,12.61
2017-10-22T15:01:36.204Z,12.58
2017-10-22T15:03:29.191Z,12.62
2017-10-22T15:04:29.246Z,12.62
2017-10-22T15:06:22.255Z,12.65
2017-10-22T15:07:22.295Z,12.76
2017-10-22T15:09:15.282Z,12.76
2017-10-22T15:10:15.342Z,12.75
2017-10-22T15:12:08.345Z,12.75
2017-10-22T15:13:08.385Z,12.61
2017-10-22T15:15:01.392Z,12.60
2017-10-22T15:16:01.431Z,12.49
2017-10-22T15:17:54.418Z,12.50
2017-10-22T15:18:54.477Z,12.50
2017-10-22T15:20:47.486Z,12.57
2017-10-22T15:21:47.527Z,12.57
2017-10-22T15:23:40.506Z,12.46
2017-10-22T15:24:40.565Z,12.55
2017-10-22T15:26:33.572Z,12.50
2017-10-22T15:27:33.610Z,12.50
2017-10-22T15:29:26.596Z,12.54
2017-10-22T15:30:26.753Z,12.49
2017-10-22T15:32:19.670Z,12.50
2017-10-22T15:33:19.707Z,12.55
2017-10-22T15:35:12.712Z,12.49
2017-10-22T15:36:12.751Z,12.53
2017-10-22T15:38:05.740Z,12.55
2017-10-22T15:39:05.799Z,12.47
2017-10-22T15:40:59.314Z,12.55
2017-10-22T15:41:59.351Z,12.54
2017-10-22T15:43:52.339Z,12.46
2017-10-22T15:44:52.396Z,12.45
2017-10-22T15:46:45.400Z,12.40
2017-10-22T15:47:45.440Z,12.43
2017-10-22T15:49:38.423Z,12.40
2017-10-22T15:50:38.485Z,12.46
2017-10-22T15:52:31.496Z,12.37
2017-10-22T15:53:31.536Z,12.36
2017-10-22T15:55:24.568Z,12.43
2017-10-22T15:56:24.583Z,12.40
2017-10-22T15:58:17.568Z,12.27
2017-10-22T15:59:17.630Z,12.32
2017-10-22T16:01:10.636Z,12.29
2017-10-22T16:02:10.674Z,12.24
2017-10-22T16:04:03.662Z,12.20
2017-10-22T16:05:03.721Z,12.22
2017-10-22T16:06:56.727Z,12.13
2017-10-22T16:07:56.768Z,12.06
2017-10-22T16:09:49.755Z,12.03
2017-10-22T16:10:49.815Z,12.03
2017-10-22T16:12:42.817Z,12.04
2017-10-22T16:13:42.856Z,12.07
2017-10-22T16:15:35.861Z,12.04
2017-10-22T16:16:35.900Z,11.91
2017-10-22T16:18:28.888Z,12.02
2017-10-22T16:19:28.944Z,11.88
2017-10-22T16:21:21.954Z,11.86
2017-10-22T16:22:21.995Z,11.77
2017-10-22T16:24:14.986Z,11.72
2017-10-22T16:25:15.046Z,11.73
2017-10-22T16:27:08.051Z,11.70
2017-10-22T16:28:08.086Z,11.62
2017-10-22T16:30:01.074Z,11.62
2017-10-22T16:31:01.134Z,11.69
2017-10-22T16:32:54.138Z,11.55
2017-10-22T16:33:54.181Z,11.62
2017-10-22T16:35:47.181Z,11.62
2017-10-22T16:36:47.221Z,11.68
2017-10-22T16:38:40.210Z,11.57
2017-10-22T16:39:40.267Z,11.50
2017-10-22T16:41:33.280Z,11.54
2017-10-22T16:42:33.349Z,11.57
2017-10-22T16:44:26.305Z,11.59
2017-10-22T16:45:26.365Z,11.57
2017-10-22T16:47:19.375Z,11.73
2017-10-22T16:48:19.412Z,11.69
2017-10-22T16:50:12.398Z,11.69
2017-10-22T16:51:12.456Z,11.69
2017-10-22T16:53:05.484Z,11.65
2017-10-22T16:54:05.498Z,11.66
2017-10-22T16:55:58.504Z,11.70
2017-10-22T16:56:58.546Z,11.65
2017-10-22T16:58:51.530Z,11.55
2017-10-22T16:59:51.587Z,11.55
2017-10-22T17:01:44.592Z,11.57
2017-10-22T17:02:44.631Z,11.52
2017-10-22T17:04:37.620Z,11.54
2017-10-22T17:05:37.682Z,11.48
2017-10-22T17:07:30.685Z,11.55
2017-10-22T17:08:30.718Z,11.51
2017-10-22T17:10:23.708Z,11.50
2017-10-22T17:11:23.767Z,11.50
2017-10-22T17:13:16.771Z,11.50
2017-10-22T17:14:16.818Z,11.48
2017-10-22T17:16:09.819Z,11.51
2017-10-22T17:17:09.855Z,11.45
2017-10-22T17:19:02.842Z,11.50
2017-10-22T17:20:02.906Z,11.51
2017-10-22T17:21:55.930Z,11.43
2017-10-22T17:25:47.955Z,11.43
2017-10-22T17:26:48.006Z,11.45
2017-10-22T17:28:40.976Z,11.45
2017-10-22T17:29:41.032Z,11.43
2017-10-22T17:31:34.040Z,11.37
2017-10-22T17:32:34.076Z,11.41
2017-10-22T17:34:27.064Z,11.40
2017-10-22T17:35:27.122Z,11.30
2017-10-22T17:37:20.131Z,11.25
2017-10-22T17:38:20.172Z,11.23
2017-10-22T17:40:13.160Z,11.22
2017-10-22T17:41:13.220Z,11.19
2017-10-22T17:43:06.227Z,11.17
2017-10-22T17:44:06.268Z,11.10
2017-10-22T17:45:59.272Z,11.05
2017-10-22T17:46:59.309Z,11.00
2017-10-22T17:48:52.319Z,10.99
2017-10-22T17:49:52.359Z,10.99
2017-10-22T17:51:45.366Z,10.97
2017-10-22T17:52:45.405Z,11.02
2017-10-22T17:54:38.397Z,10.99
2017-10-22T17:55:38.449Z,10.96
2017-10-22T17:57:31.461Z,10.97
2017-10-22T17:58:31.508Z,10.96
2017-10-22T18:00:24.486Z,10.97
2017-10-22T18:01:24.545Z,10.92
2017-10-22T18:03:17.550Z,10.81
2017-10-22T18:04:17.591Z,10.78
2017-10-22T18:06:10.601Z,10.90
2017-10-22T18:07:10.641Z,10.84
2017-10-22T18:09:03.636Z,10.81
2017-10-22T18:10:03.699Z,10.81
2017-10-22T18:11:56.702Z,10.79
2017-10-22T18:12:57.044Z,10.81
2017-10-22T18:14:49.726Z,10.79
2017-10-22T18:15:49.786Z,10.81
2017-10-22T18:17:42.802Z,10.93
2017-10-22T18:18:42.833Z,10.96
2017-10-22T18:20:35.818Z,10.96
2017-10-22T18:21:35.875Z,10.92
2017-10-22T18:23:28.879Z,10.97
2017-10-22T18:24:28.918Z,10.99
2017-10-22T18:26:21.923Z,10.93
2017-10-22T18:27:21.977Z,10.89
2017-10-22T18:29:14.940Z,10.84
2017-10-22T18:30:15.002Z,10.87
2017-10-22T18:32:08.010Z,10.81
2017-10-22T18:33:08.051Z,10.86
2017-10-22T18:35:01.038Z,10.76
2017-10-22T18:36:01.096Z,10.89